createdAt,value
2022-12-28T00:01:11.842Z,8.30
2022-12-28T00:03:38.950Z,8.77
2022-12-28T00:06:07.486Z,9.98
2022-12-28T00:08:34.464Z,9.45
2022-12-28T00:11:07.864Z,9.07
2022-12-28T00:13:36.479Z,9.13
2022-12-28T00:16:12.098Z,8.90
2022-12-28T00:18:39.049Z,9.77
2022-12-28T00:21:06.230Z,9.77
2022-12-28T00:23:33.194Z,10.68
2022-12-28T00:26:11.837Z,11.57
2022-12-28T00:28:39.402Z,9.68
2022-12-28T00:31:07.085Z,11.25
2022-12-28T00:33:34.158Z,9.95
2022-12-28T00:36:02.300Z,11.18
2022-12-28T00:38:33.483Z,10.30
2022-12-28T00:41:03.028Z,9.43
2022-12-28T00:43:30.321Z,10.00
2022-12-28T00:45:59.592Z,10.18
2022-12-28T00:48:26.512Z,11.35
2022-12-28T00:50:53.583Z,9.43
2022-12-28T00:53:20.686Z,9.52
2022-12-28T00:55:50.946Z,9.82
2022-12-28T00:58:17.875Z,9.32
2022-12-28T01:00:44.741Z,12.52
2022-12-28T01:03:11.589Z,9.40
2022-12-28T01:05:40.014Z,11.75
2022-12-28T01:08:08.494Z,11.75
2022-12-28T01:10:35.409Z,12.45
2022-12-28T01:13:02.237Z,9.98
2022-12-28T01:15:29.165Z,10.13
2022-12-28T01:17:56.117Z,10.05
2022-12-28T01:20:23.012Z,10.00
2022-12-28T01:22:49.933Z,10.93
2022-12-28T01:25:17.009Z,10.32
2022-12-28T01:27:43.978Z,11.52
2022-12-28T01:30:13.780Z,11.85
2022-12-28T01:32:40.813Z,11.68
2022-12-28T01:35:08.277Z,10.43
2022-12-28T01:37:35.941Z,10.15
2022-12-28T01:40:02.858Z,10.77
2022-12-28T01:42:29.666Z,9.73
2022-12-28T01:44:56.520Z,10.02
2022-12-28T01:47:31.781Z,9.77
2022-12-28T01:50:03.384Z,9.52
2022-12-28T01:52:32.790Z,9.85
2022-12-28T01:55:14.160Z,10.80
2022-12-28T01:57:51.427Z,10.35
2022-12-28T02:00:18.553Z,8.77
2022-12-28T02:02:52.578Z,10.43
2022-12-28T02:05:20.464Z,8.00
2022-12-28T02:07:57.610Z,8.77
2022-12-28T02:10:41.233Z,8.43
2022-12-28T02:13:12.744Z,5.95
2022-12-28T02:15:39.638Z,7.10
2022-12-28T02:18:06.741Z,6.93
2022-12-28T02:21:15.043Z,7.07
2022-12-28T02:24:09.158Z,5.85
2022-12-28T02:27:14.775Z,6.72
2022-12-28T02:29:53.454Z,8.90
2022-12-28T02:32:57.840Z,5.10
2022-12-28T02:38:05.840Z,5.47
2022-12-28T02:40:42.558Z,6.80
2022-12-28T02:43:09.845Z,5.75
2022-12-28T02:46:01.552Z,4.57
2022-12-28T02:48:47.330Z,6.65
2022-12-28T02:51:55.625Z,5.63
2022-12-28T02:54:42.708Z,6.72
2022-12-28T02:57:42.733Z,5.60
2022-12-28T03:00:15.657Z,6.13
2022-12-28T03:03:01.317Z,5.65
2022-12-28T03:06:34.106Z,9.10
2022-12-28T03:09:36.879Z,5.53
2022-12-28T03:26:42.840Z,3.80
2022-12-28T03:29:33.315Z,3.08
2022-12-28T03:32:01.211Z,3.22
2022-12-28T03:34:28.397Z,5.10
2022-12-28T03:37:07.269Z,3.38
2022-12-28T03:39:38.876Z,3.97
2022-12-28T03:42:40.479Z,3.63
2022-12-28T03:45:45.297Z,5.68
2022-12-28T03:48:18.556Z,5.13
2022-12-28T03:50:48.640Z,6.13
2022-12-28T03:53:20.311Z,3.97
2022-12-28T03:55:49.427Z,4.25
2022-12-28T03:58:21.347Z,4.47
2022-12-28T04:00:49.486Z,4.07
2022-12-28T04:03:23.899Z,6.30
2022-12-28T04:05:50.975Z,5.20
2022-12-28T04:08:17.818Z,3.92
2022-12-28T04:10:44.732Z,5.47
2022-12-28T04:13:11.627Z,6.38
2022-12-28T04:15:58.841Z,6.55
2022-12-28T04:18:26.861Z,6.72
2022-12-28T04:20:55.298Z,4.68
2022-12-28T04:23:22.505Z,2.95
2022-12-28T04:26:11.768Z,3.55
2022-12-28T04:31:26.047Z,2.65
2022-12-28T04:34:04.159Z,7.68
2022-12-28T04:36:34.612Z,3.25
2022-12-28T04:39:02.930Z,4.80
2022-12-28T04:41:32.558Z,7.47
2022-12-28T04:43:59.530Z,6.72
2022-12-28T04:46:26.556Z,3.58
2022-12-28T04:48:53.634Z,5.47
2022-12-28T04:51:24.214Z,6.47
2022-12-28T04:53:51.850Z,5.15
2022-12-28T04:56:20.287Z,5.82
2022-12-28T04:58:51.857Z,3.22
2022-12-28T05:01:19.963Z,3.13
2022-12-28T05:03:55.096Z,6.25
2022-12-28T05:06:25.509Z,6.35
2022-12-28T05:08:52.420Z,15.85
2022-12-28T05:11:21.766Z,4.10
2022-12-28T05:13:49.499Z,5.43
2022-12-28T05:16:21.828Z,4.25
2022-12-28T05:18:48.933Z,5.43
2022-12-28T05:21:19.251Z,4.65
2022-12-28T05:23:46.707Z,5.55
2022-12-28T05:26:16.358Z,3.97
2022-12-28T05:28:43.473Z,3.45
2022-12-28T05:31:13.786Z,4.50
2022-12-28T05:33:41.621Z,4.05
2022-12-28T05:36:11.665Z,5.25
2022-12-28T05:38:39.075Z,5.03
2022-12-28T05:41:26.239Z,4.13
2022-12-28T05:43:54.123Z,4.13
2022-12-28T05:46:26.815Z,6.45
2022-12-28T05:48:55.426Z,4.38
2022-12-28T05:51:24.916Z,4.00
2022-12-28T05:53:51.879Z,4.80
2022-12-28T05:56:23.829Z,9.38
2022-12-28T05:59:05.698Z,7.05
2022-12-28T06:01:35.275Z,6.07
2022-12-28T06:04:04.793Z,3.83
2022-12-28T06:06:33.559Z,4.93
2022-12-28T06:09:01.961Z,6.75
2022-12-28T06:11:30.069Z,9.60
2022-12-28T06:13:59.052Z,4.95
2022-12-28T06:16:31.650Z,6.82
2022-12-28T06:18:58.897Z,4.15
2022-12-28T06:21:30.939Z,8.73
2022-12-28T06:23:59.821Z,4.97
2022-12-28T06:26:29.621Z,5.72
2022-12-28T06:28:57.207Z,5.88
2022-12-28T06:31:29.767Z,6.32
2022-12-28T06:33:58.991Z,3.15
2022-12-28T06:36:30.759Z,5.80
2022-12-28T06:38:59.849Z,6.50
2022-12-28T06:41:28.154Z,4.28
2022-12-28T06:43:55.962Z,3.33
2022-12-28T06:46:25.173Z,6.32
2022-12-28T06:48:52.337Z,9.35
2022-12-28T06:51:25.157Z,5.97
2022-12-28T06:53:53.540Z,4.30
2022-12-28T06:56:26.458Z,5.75
2022-12-28T06:59:00.331Z,11.00
2022-12-28T07:01:40.941Z,8.43
2022-12-28T07:04:09.722Z,4.80
2022-12-28T07:06:39.701Z,6.10
2022-12-28T07:09:10.181Z,6.80
2022-12-28T07:11:37.594Z,5.60
2022-12-28T07:14:04.704Z,8.68
2022-12-28T07:18:59.355Z,5.80
2022-12-28T07:21:31.533Z,8.70
2022-12-28T07:23:59.499Z,4.60
2022-12-28T07:26:29.359Z,7.30
2022-12-28T07:28:58.252Z,6.15
2022-12-28T07:31:28.359Z,3.85
2022-12-28T07:33:56.775Z,13.23
2022-12-28T07:36:25.279Z,5.13
2022-12-28T07:38:52.388Z,15.02
2022-12-28T07:41:22.418Z,6.13
2022-12-28T07:43:50.032Z,8.00
2022-12-28T07:46:22.541Z,4.25
2022-12-28T07:48:50.277Z,8.27
2022-12-28T07:51:21.883Z,5.55
2022-12-28T07:53:50.153Z,6.38
2022-12-28T07:56:18.235Z,6.35
2022-12-28T07:58:52.253Z,8.57
2022-12-28T08:01:23.565Z,6.75
2022-12-28T08:03:55.224Z,3.92
2022-12-28T08:06:23.558Z,3.80
2022-12-28T08:08:56.369Z,8.40
2022-12-28T08:11:25.987Z,5.10
2022-12-28T08:13:55.255Z,7.30
2022-12-28T08:16:24.612Z,3.95
2022-12-28T08:18:51.426Z,5.18
2022-12-28T08:21:25.056Z,5.25
2022-12-28T08:23:52.267Z,5.22
2022-12-28T08:26:22.549Z,3.83
2022-12-28T08:28:51.675Z,6.43
2022-12-28T08:31:24.389Z,5.28
2022-12-28T08:33:53.616Z,3.10
2022-12-28T08:36:20.946Z,4.03
2022-12-28T08:38:48.261Z,5.72
2022-12-28T08:41:17.825Z,4.38
2022-12-28T08:43:45.863Z,4.97
2022-12-28T08:46:18.826Z,3.05
2022-12-28T08:48:48.089Z,7.32
2022-12-28T08:51:27.035Z,5.57
2022-12-28T08:53:54.232Z,6.97
2022-12-28T08:56:27.828Z,8.70
2022-12-28T08:58:55.878Z,9.93
2022-12-28T09:01:27.799Z,7.93
2022-12-28T09:03:57.473Z,4.00
2022-12-28T09:06:37.207Z,4.53
2022-12-28T09:09:07.418Z,2.85
2022-12-28T09:11:38.554Z,2.42
2022-12-28T09:14:12.031Z,5.28
2022-12-28T09:16:42.593Z,3.22
2022-12-28T09:19:13.809Z,3.05
2022-12-28T09:21:41.777Z,4.75
2022-12-28T09:24:08.735Z,3.03
2022-12-28T09:26:37.808Z,3.22
2022-12-28T09:29:08.806Z,9.43
2022-12-28T09:31:37.437Z,3.85
2022-12-28T09:36:53.157Z,4.10
2022-12-28T09:39:24.699Z,3.33
2022-12-28T09:41:55.146Z,14.32
2022-12-28T09:44:40.471Z,6.40
2022-12-28T09:47:13.236Z,4.63
2022-12-28T09:50:17.405Z,4.68
2022-12-28T09:53:08.578Z,3.45
2022-12-28T09:55:38.424Z,7.22
2022-12-28T09:58:11.324Z,4.20
2022-12-28T10:00:48.042Z,5.90
2022-12-28T10:03:19.942Z,4.28
2022-12-28T10:05:47.990Z,5.68
2022-12-28T10:08:19.159Z,4.32
2022-12-28T10:10:49.035Z,2.70
2022-12-28T10:16:16.542Z,2.50
2022-12-28T10:18:43.560Z,4.07
2022-12-28T10:21:11.593Z,2.45
2022-12-28T10:23:56.840Z,4.45
2022-12-28T10:26:26.991Z,2.47
2022-12-28T10:28:58.401Z,4.93
2022-12-28T10:31:37.780Z,4.50
2022-12-28T10:34:24.526Z,4.68
2022-12-28T10:36:54.469Z,2.53
2022-12-28T10:39:29.869Z,2.58
2022-12-28T10:42:00.780Z,3.42
2022-12-28T10:50:26.929Z,2.58
2022-12-28T10:52:42.194Z,3.17
2022-12-28T10:55:30.348Z,4.60
2022-12-28T10:58:32.903Z,4.28
2022-12-28T11:01:25.997Z,4.20
2022-12-28T11:03:21.192Z,3.85
2022-12-28T11:03:55.922Z,3.67
2022-12-28T11:06:31.440Z,3.75
2022-12-28T11:09:16.557Z,3.38
2022-12-28T11:11:46.175Z,2.15
2022-12-28T11:14:36.346Z,4.97
2022-12-28T11:17:27.749Z,2.75
2022-12-28T11:20:08.795Z,3.22
2022-12-28T11:22:35.760Z,7.10
2022-12-28T11:25:03.114Z,9.45
2022-12-28T11:27:30.134Z,3.20
2022-12-28T11:29:57.980Z,5.47
2022-12-28T11:32:30.037Z,5.85
2022-12-28T11:34:58.110Z,4.38
2022-12-28T11:37:25.212Z,4.18
2022-12-28T11:39:53.219Z,3.88
2022-12-28T11:42:40.679Z,1.95
2022-12-28T11:45:16.523Z,3.88
2022-12-28T11:47:43.505Z,1.75
2022-12-28T11:50:36.707Z,1.80
2022-12-28T11:53:19.403Z,2.25
2022-12-28T11:56:01.437Z,2.95
2022-12-28T11:58:31.329Z,2.22
2022-12-28T12:01:00.208Z,2.70
2022-12-28T12:03:58.475Z,2.38
2022-12-28T12:06:43.833Z,4.43
2022-12-28T12:09:26.448Z,2.60
2022-12-28T12:12:22.795Z,2.83
2022-12-28T12:14:57.587Z,3.03
2022-12-28T12:17:42.752Z,4.25
2022-12-28T12:20:49.033Z,5.78
2022-12-28T12:23:43.574Z,5.93
2022-12-28T12:26:28.160Z,2.78
2022-12-28T12:29:07.883Z,2.15
2022-12-28T12:31:41.514Z,5.30
2022-12-28T12:34:24.640Z,3.42
2022-12-28T12:37:06.672Z,4.03
2022-12-28T12:39:42.541Z,2.30
2022-12-28T12:42:44.412Z,5.60
2022-12-28T12:45:21.958Z,2.38
2022-12-28T12:47:48.943Z,4.00
2022-12-28T12:50:33.412Z,1.40
2022-12-28T12:53:18.814Z,3.25
2022-12-28T12:56:07.773Z,3.15
2022-12-28T12:58:57.562Z,4.85
2022-12-28T13:01:30.122Z,3.65
2022-12-28T13:04:06.700Z,4.32
2022-12-28T13:06:36.850Z,2.20
2022-12-28T13:09:06.572Z,3.80
2022-12-28T13:11:38.341Z,5.70
2022-12-28T13:14:06.786Z,6.97
2022-12-28T13:16:33.870Z,3.53
2022-12-28T13:19:07.278Z,4.55
2022-12-28T13:21:46.248Z,1.83
2022-12-28T13:24:22.146Z,1.95
2022-12-28T13:26:50.830Z,1.88
2022-12-28T13:29:21.236Z,2.63
2022-12-28T13:31:50.010Z,4.45
2022-12-28T13:34:16.771Z,2.67
2022-12-28T13:36:50.707Z,3.75
2022-12-28T13:39:19.623Z,3.75
2022-12-28T13:42:02.574Z,2.80
2022-12-28T13:44:38.168Z,4.15
2022-12-28T13:47:14.060Z,2.83
2022-12-28T13:49:56.061Z,2.50
2022-12-28T13:52:46.679Z,2.88
2022-12-28T13:55:18.451Z,1.98
2022-12-28T13:57:57.408Z,3.63
2022-12-28T14:00:27.777Z,2.97
2022-12-28T14:02:56.940Z,3.72
2022-12-28T14:05:29.948Z,5.63
2022-12-28T14:07:59.028Z,1.95
2022-12-28T14:10:27.329Z,3.22
2022-12-28T14:12:54.987Z,2.85
2022-12-28T14:15:22.407Z,3.40
2022-12-28T14:17:51.619Z,4.07
2022-12-28T14:20:18.925Z,4.95
2022-12-28T14:22:46.030Z,3.60
2022-12-28T14:25:14.498Z,5.10
2022-12-28T14:28:08.089Z,1.50
2022-12-28T14:30:41.401Z,3.08
2022-12-28T14:33:24.737Z,2.00
2022-12-28T14:35:59.393Z,3.05
2022-12-28T14:38:33.903Z,3.15
2022-12-28T14:41:02.523Z,3.70
2022-12-28T14:43:32.596Z,2.55
2022-12-28T14:46:31.908Z,2.15
2022-12-28T14:49:00.368Z,3.92
2022-12-28T14:51:31.820Z,5.40
2022-12-28T14:54:19.502Z,4.25
2022-12-28T14:56:53.687Z,2.90
2022-12-28T14:59:29.540Z,3.47
2022-12-28T15:01:56.769Z,3.47
2022-12-28T15:04:33.990Z,4.22
2022-12-28T15:07:00.848Z,4.53
2022-12-28T15:09:27.688Z,7.68
2022-12-28T15:12:14.653Z,7.95
2022-12-28T15:14:42.206Z,5.35
2022-12-28T15:28:19.060Z,8.18
2022-12-28T15:30:46.099Z,6.50
2022-12-28T15:33:13.133Z,6.57
2022-12-28T15:35:40.000Z,7.10
2022-12-28T15:38:06.921Z,7.80
2022-12-28T15:40:33.840Z,8.05
2022-12-28T15:43:00.719Z,6.85
2022-12-28T15:45:27.597Z,6.28
2022-12-28T15:47:55.124Z,7.00
2022-12-28T15:50:22.048Z,6.85
2022-12-28T15:52:49.147Z,7.93
2022-12-28T15:55:16.189Z,7.53
2022-12-28T15:57:44.636Z,8.70
2022-12-28T16:00:18.778Z,15.63
2022-12-28T16:02:46.747Z,12.40
2022-12-28T16:05:14.397Z,19.48
2022-12-28T16:07:41.274Z,16.60
2022-12-28T16:10:08.552Z,13.07
2022-12-28T16:12:35.447Z,16.05
2022-12-28T16:15:02.381Z,10.65
2022-12-28T16:17:29.246Z,14.35
2022-12-28T16:19:56.161Z,11.32
2022-12-28T16:22:23.361Z,11.60
2022-12-28T16:24:50.260Z,14.25
2022-12-28T16:27:17.453Z,15.43
2022-12-28T16:29:46.199Z,11.20
2022-12-28T16:32:13.053Z,10.23
2022-12-28T16:34:40.201Z,11.93
2022-12-28T16:37:07.399Z,13.65
2022-12-28T16:39:34.846Z,17.30
2022-12-28T16:42:01.815Z,12.70
2022-12-28T16:44:29.510Z,14.18
2022-12-28T16:47:00.045Z,17.15
2022-12-28T16:49:27.994Z,15.38
2022-12-28T16:51:54.931Z,16.05
2022-12-28T16:54:23.792Z,15.35
2022-12-28T16:56:52.121Z,12.95
2022-12-28T16:59:29.448Z,12.50
2022-12-28T17:01:57.998Z,16.05
2022-12-28T17:04:24.980Z,13.60
2022-12-28T17:06:52.137Z,15.80
2022-12-28T17:09:19.718Z,13.43
2022-12-28T17:11:48.365Z,19.80
2022-12-28T17:14:29.227Z,17.60
2022-12-28T17:17:02.642Z,13.57
2022-12-28T17:19:29.616Z,16.00
2022-12-28T17:21:56.469Z,15.18
2022-12-28T17:24:23.323Z,21.58
2022-12-28T17:26:50.235Z,7.38
2022-12-28T17:29:17.322Z,12.82
2022-12-28T17:31:44.336Z,7.70
2022-12-28T17:34:11.395Z,14.32
2022-12-28T17:36:39.070Z,6.47
2022-12-28T17:39:06.012Z,11.93
2022-12-28T17:41:33.130Z,7.25
2022-12-28T17:44:00.743Z,10.32
2022-12-28T17:46:29.535Z,9.93
2022-12-28T17:48:58.406Z,9.02
2022-12-28T17:51:26.700Z,11.27
2022-12-28T17:53:56.598Z,11.70
2022-12-28T17:56:23.621Z,4.57
2022-12-28T17:58:55.766Z,9.85
2022-12-28T18:01:23.012Z,9.68
2022-12-28T18:03:50.166Z,7.65
2022-12-28T18:06:17.221Z,9.23
2022-12-28T18:08:44.770Z,5.35
2022-12-28T18:11:11.686Z,7.43
2022-12-28T18:13:39.803Z,4.75
2022-12-28T18:16:08.772Z,6.43
2022-12-28T18:18:35.676Z,6.25
2022-12-28T18:21:07.776Z,7.75
2022-12-28T18:23:35.428Z,5.07
2022-12-28T18:26:02.256Z,20.80
2022-12-28T18:28:29.630Z,9.18
2022-12-28T18:31:01.489Z,8.02
2022-12-28T18:33:29.834Z,8.00
2022-12-28T18:35:57.078Z,7.25
2022-12-28T18:38:24.147Z,8.90
2022-12-28T18:40:52.541Z,6.32
2022-12-28T18:43:20.142Z,5.80
2022-12-28T18:45:55.287Z,6.38
2022-12-28T18:48:26.691Z,6.13
2022-12-28T18:50:59.816Z,3.95
2022-12-28T18:53:28.258Z,7.50
2022-12-28T18:56:00.466Z,6.50
2022-12-28T18:58:32.742Z,9.35
2022-12-28T19:01:09.334Z,9.52
2022-12-28T19:03:43.575Z,6.35
2022-12-28T19:06:11.028Z,2.72
2022-12-28T19:08:39.621Z,5.55
2022-12-28T19:11:08.296Z,5.88
2022-12-28T19:13:41.292Z,10.93
2022-12-28T19:16:12.232Z,7.53
2022-12-28T19:18:39.115Z,9.50
2022-12-28T19:21:17.712Z,4.95
2022-12-28T19:23:45.298Z,5.30
2022-12-28T19:26:12.480Z,5.57
2022-12-28T19:28:39.346Z,7.28
2022-12-28T19:31:06.201Z,5.30
2022-12-28T19:33:33.105Z,6.95
2022-12-28T19:36:00.153Z,9.88
2022-12-28T19:38:27.644Z,10.43
2022-12-28T19:40:55.939Z,12.55
2022-12-28T19:43:23.490Z,7.30
2022-12-28T19:45:50.260Z,11.10
2022-12-28T19:48:17.105Z,11.52
2022-12-28T19:50:43.891Z,10.75
2022-12-28T19:53:10.698Z,8.00
2022-12-28T19:55:37.614Z,14.48
2022-12-28T19:58:04.467Z,11.20
2022-12-28T20:00:31.275Z,10.20
2022-12-28T20:02:58.338Z,11.88
2022-12-28T20:05:25.991Z,20.67
2022-12-28T20:07:52.930Z,11.70
2022-12-28T20:10:19.809Z,15.52
2022-12-28T20:12:46.673Z,16.10
2022-12-28T20:15:13.474Z,18.55
2022-12-28T20:17:42.194Z,13.60
2022-12-28T20:20:09.226Z,17.20
2022-12-28T20:22:40.340Z,16.30
2022-12-28T20:25:07.698Z,19.92
2022-12-28T20:27:34.769Z,18.63
2022-12-28T20:30:01.724Z,15.23
2022-12-28T20:32:28.601Z,17.63
2022-12-28T20:34:55.668Z,26.77
2022-12-28T20:37:22.491Z,40.90
2022-12-28T20:39:49.332Z,32.33
2022-12-28T20:42:34.689Z,16.10
2022-12-28T20:45:01.670Z,15.65
2022-12-28T20:47:28.553Z,16.92
2022-12-28T20:49:55.540Z,17.55
2022-12-28T20:52:22.595Z,15.20
2022-12-28T20:54:49.786Z,18.75
2022-12-28T20:57:16.691Z,25.60
2022-12-28T20:59:43.644Z,22.58
2022-12-28T21:02:10.578Z,30.45
2022-12-28T21:04:37.594Z,31.42
2022-12-28T21:07:05.152Z,35.95
2022-12-28T21:09:32.216Z,30.05
2022-12-28T21:11:59.086Z,28.63
2022-12-28T21:14:25.964Z,28.80
2022-12-28T21:16:52.905Z,27.17
2022-12-28T21:19:19.975Z,26.02
2022-12-28T21:21:48.534Z,26.63
2022-12-28T21:24:15.439Z,25.98
2022-12-28T21:26:42.313Z,24.10
2022-12-28T21:29:09.274Z,32.03
2022-12-28T21:31:36.451Z,30.33
2022-12-28T21:34:03.602Z,24.63
2022-12-28T21:36:30.614Z,101.95
2022-12-28T21:38:57.568Z,42.00
2022-12-28T21:41:43.196Z,22.23
2022-12-28T21:44:13.511Z,22.50
2022-12-28T21:46:41.080Z,16.88
2022-12-28T21:49:08.113Z,20.00
2022-12-28T21:51:35.641Z,20.17
2022-12-28T21:54:15.856Z,13.68
2022-12-28T21:56:45.008Z,17.30
2022-12-28T21:59:14.869Z,18.75
2022-12-28T22:02:17.656Z,14.07
2022-12-28T22:05:19.632Z,17.73
2022-12-28T22:07:46.753Z,18.10
2022-12-28T22:10:32.793Z,15.43
2022-12-28T22:13:00.006Z,17.45
2022-12-28T22:15:45.667Z,12.95
2022-12-28T22:23:35.219Z,14.80
2022-12-28T22:26:02.705Z,17.10
2022-12-28T22:28:29.590Z,20.05
2022-12-28T22:31:03.477Z,18.10
2022-12-28T22:33:30.364Z,18.23
2022-12-28T22:35:57.336Z,17.65
2022-12-28T22:38:24.144Z,16.38
2022-12-28T22:41:00.266Z,11.88
2022-12-28T22:43:27.123Z,15.68
2022-12-28T22:46:05.510Z,14.80
2022-12-28T22:48:32.630Z,18.23
2022-12-28T22:51:07.471Z,12.13
2022-12-28T22:53:36.541Z,13.73
2022-12-28T22:56:06.434Z,16.20
2022-12-28T22:58:34.369Z,27.02
2022-12-28T23:01:13.090Z,11.88
2022-12-28T23:03:41.543Z,15.55
2022-12-28T23:06:10.196Z,12.40
2022-12-28T23:08:37.232Z,11.57
2022-12-28T23:11:27.089Z,12.10
2022-12-28T23:13:54.014Z,8.27
2022-12-28T23:16:20.987Z,10.57
2022-12-28T23:19:06.596Z,12.95
2022-12-28T23:21:51.950Z,10.35
2022-12-28T23:24:37.477Z,11.43
2022-12-28T23:27:21.009Z,9.25
2022-12-28T23:29:48.095Z,10.85
2022-12-28T23:32:15.034Z,9.52
2022-12-28T23:34:41.923Z,11.57
2022-12-28T23:37:08.770Z,10.07
2022-12-28T23:39:35.791Z,15.13
2022-12-28T23:42:02.647Z,13.85
2022-12-28T23:44:29.701Z,12.73
2022-12-28T23:46:59.248Z,9.95
2022-12-28T23:49:29.488Z,15.48
2022-12-28T23:51:56.497Z,15.43
2022-12-28T23:54:23.423Z,10.35
2022-12-28T23:56:50.246Z,8.73
2022-12-28T23:59:17.179Z,8.77
